Aérodrome :
LOGIN :

S'inscrire | Disclaimer

   EN    FR    IT 

 










Légende :    VFR   VFR Marginal   IFR   IFR Intensif   IFR Très Intensif
Visi : 
Plafond : 
>= 8 km
>= 3000ft
5 à 8 km
1000 à 3000 ft
1500m à 5 km
500 à 1000 ft
800 à 1500m
200 à 500 ft
< 800m
< 200 ft
Symboles :   Orages  Brouillard  Fortes neiges  Fortes précipitations  Vent > 20 kt
SIGMETs :   Divers  Orages  Givrage  Turbulence  Onde Orograph.  Cendres Volcan.







- Altitude de l'aérodrome : 203 ft
- Code IATA : XMJ
- Voir les cartes d'approche


LFBM - Mont-De-Marsan

DERNIER METAR :
  • 222200Z AUTO 26009KT 9999 -RA ///TCU 16/14 Q1020 TEMPO 4000 TSRA BKN060CB BKN120

METARs EXPIRÉS :
  • 222130Z AUTO 29011KT 9999 ///TCU 18/12 Q1019 TEMPO 4000 TSRA BKN060CB BKN120
  • 222100Z AUTO 29007KT CAVOK 19/12 Q1018 TEMPO 4000 TSRA BKN060CB BKN120
  • 222030Z AUTO 27008KT CAVOK 20/13 Q1018 TEMPO 4000 TSRA BKN060CB BKN120
  • 222000Z AUTO 27004KT CAVOK 19/12 Q1017
  • 221930Z AUTO 30003KT CAVOK 20/12 Q1016 TEMPO 4000 TSRA BKN090CB BKN120

TAF TAF LFBM
Valide du 22 à 21h jusqu'au 23 à 21h UTC


222000Z 2221/2321 27010KT 9999 FEW100CB BKN120 BKN180
TEMPO 2221/2224 6000 SHRA BKN070CB BKN120 BKN180
PROB40
TEMPO 2221/2224 4000 TSRA BKN060CB BKN120
BECMG 2222/2224 BKN010 FEW100CB BKN120
TEMPO 2300/2308 6000 SHRA BKN005 BKN090CB BKN120
PROB40
TEMPO 2300/2307 4000 TSRA BKN005 BKN090CB BKN120
BECMG 2308/2309 SCT010 BKN015 BKN030
BECMG 2312/2314 VRB02KT BKN025 BKN035
Pas de NOTAMs connus pour ce terrain.



MET'MAP, la Météo Aéronautique d'un coup d'oeil ! - Copyright ORBIFLY Décembre 2007 - Disclaimer

ORBIFLY MET'MAP TEAM :

Programmation & Développement : Alexandra Zaïnal
Conception & Développement : Baudouin d'Aumeries
Co-Programmation & Développement : Marc-Olivier Méhu
Soutien technique & logistique : Manuel Goepfert

Contact : metmap@orbifly.com




SOURCES & CREDITS :

   NOAA